| time (UTC) | temp F | wind direction | speed knots | gust knots | rain 1hr in | rain 24hr in | rain mn in | humidity % | barometer mb |
| 20260510170024 | 86 | 350 | 4.3 | 12.2 | 0.00 | 0.00 | 0.00 | 69 | 1017.4 |
| 20260510164527 | 85 | 299 | 7.0 | 13.0 | 0.00 | 0.00 | 0.00 | 69 | 1017.5 |
| 20260510163025 | 86 | 270 | 4.3 | 12.2 | 0.00 | 0.00 | 0.00 | 68 | 1017.5 |
| 20260510161522 | 87 | 323 | 3.5 | 12.2 | 0.00 | 0.00 | 0.00 | 66 | 1017.5 |
| 20260510160009 | 86 | 22 | 6.1 | 11.3 | 0.00 | 0.00 | 0.00 | 70 | 1017.4 |
| 20260510154514 | 86 | 333 | 3.5 | 10.4 | 0.00 | 0.00 | 0.00 | 69 | 1017.5 |
| 20260510153020 | 86 | 300 | 2.6 | 9.6 | 0.00 | 0.00 | 0.00 | 69 | 1017.6 |
| 20260510151531 | 84 | 326 | 2.6 | 8.7 | 0.00 | 0.00 | 0.00 | 73 | 1017.4 |
| 20260510150008 | 84 | 333 | 4.3 | 8.7 | 0.00 | 0.00 | 0.00 | 72 | 1017.1 |
| 20260510144516 | 85 | 296 | 1.7 | 4.3 | 0.00 | 0.00 | 0.00 | 72 | 1017.2 |
| 20260510143016 | 85 | 284 | 2.6 | 6.1 | 0.00 | 0.00 | 0.00 | 71 | 1017.1 |
| 20260510141524 | 84 | 304 | 2.6 | 7.8 | 0.00 | 0.00 | 0.00 | 73 | 1017.0 |
| 20260510140023 | 83 | 308 | 2.6 | 6.1 | 0.00 | 0.00 | 0.00 | 74 | 1016.7 |
| 20260510134511 | 83 | 264 | 3.5 | 7.0 | 0.00 | 0.00 | 0.00 | 75 | 1016.8 |
| 20260510133015 | 82 | 274 | 2.6 | 6.1 | 0.00 | 0.00 | 0.00 | 75 | 1016.7 |
| 20260510131520 | 81 | 281 | 2.6 | 6.1 | 0.00 | 0.00 | 0.00 | 76 | 1016.6 |
| 20260510130024 | 80 | 278 | 1.7 | 5.2 | 0.00 | 0.00 | 0.00 | 78 | 1016.4 |
| 20260510124529 | 79 | 297 | 1.7 | 3.5 | 0.00 | 0.00 | 0.00 | 80 | 1016.5 |
| 20260510123013 | 76 | 300 | 1.7 | 2.6 | 0.00 | 0.00 | 0.00 | 85 | 1016.4 |
| 20260510121517 | 74 | 275 | 0.0 | 1.7 | 0.00 | 0.00 | 0.00 | 88 | 1016.2 |
| 20260510120026 | 73 | 281 | 1.7 | 3.5 | 0.00 | 0.00 | 0.00 | 89 | 1016.0 |
| 20260510114528 | 73 | 265 | 2.6 | 3.5 | 0.00 | 0.00 | 0.00 | 91 | 1015.8 |
| 20260510113012 | 72 | 274 | 0.0 | 1.7 | 0.00 | 0.00 | 0.00 | 93 | 1015.6 |
| 20260510111520 | 71 | 288 | 0.0 | 0.0 | 0.00 | 0.00 | 0.00 | 93 | 1015.5 |
| 20260510110022 | 70 | 288 | 0.0 | 0.0 | 0.00 | 0.00 | 0.00 | 92 | 1015.3 |
| 20260510104525 | 71 | 288 | 0.0 | 0.0 | 0.00 | 0.00 | 0.00 | 91 | 1015.1 |
| 20260510103028 | 71 | 288 | 0.0 | 0.0 | 0.00 | 0.00 | 0.00 | 91 | 1014.8 |
| 20260510101518 | 71 | 288 | 0.0 | 0.0 | 0.00 | 0.00 | 0.00 | 91 | 1014.7 |
| 20260510100004 | 72 | 288 | 0.0 | 0.0 | 0.00 | 0.00 | 0.00 | 90 | 1014.4 |
| 20260510094514 | 72 | 288 | 0.0 | 0.0 | 0.00 | 0.00 | 0.00 | 91 | 1014.3 |
| 20260510093010 | 72 | 284 | 0.0 | 0.0 | 0.00 | 0.00 | 0.00 | 90 | 1014.2 |
| 20260510091515 | 72 | 272 | 0.0 | 0.9 | 0.00 | 0.00 | 0.00 | 90 | 1013.9 |
| 20260510090020 | 72 | 290 | 0.0 | 0.9 | 0.00 | 0.00 | 0.00 | 89 | 1013.8 |
| 20260510084512 | 73 | 290 | 0.0 | 1.7 | 0.00 | 0.00 | 0.00 | 89 | 1013.7 |
| 20260510083008 | 73 | 272 | 0.9 | 2.6 | 0.00 | 0.00 | 0.00 | 89 | 1013.5 |
| 20260510081510 | 73 | 275 | 0.0 | 1.7 | 0.00 | 0.00 | 0.00 | 88 | 1013.5 |
| 20260510080024 | 73 | 271 | 0.9 | 2.6 | 0.00 | 0.00 | 0.00 | 87 | 1013.3 |
| 20260510074521 | 73 | 267 | 0.9 | 3.5 | 0.00 | 0.00 | 0.00 | 87 | 1013.4 |
| 20260510073012 | 73 | 278 | 0.9 | 2.6 | 0.00 | 0.00 | 0.00 | 86 | 1013.5 |
| 20260510071510 | 73 | 271 | 1.7 | 8.7 | 0.00 | 0.00 | 0.00 | 86 | 1013.3 |
| 20260510070016 | 73 | 271 | 2.6 | 5.2 | 0.00 | 0.00 | 0.00 | 86 | 1013.3 |
| 20260510064520 | 74 | 271 | 2.6 | 8.7 | 0.00 | 0.00 | 0.00 | 84 | 1013.5 |
| 20260510063025 | 74 | 290 | 3.5 | 8.7 | 0.00 | 0.00 | 0.00 | 84 | 1013.8 |
| 20260510061510 | 74 | 250 | 2.6 | 7.8 | 0.00 | 0.00 | 0.00 | 83 | 1013.9 |
| 20260510060030 | 74 | 263 | 3.5 | 7.0 | 0.00 | 0.00 | 0.00 | 82 | 1014.1 |
| 20260510054525 | 74 | 283 | 3.5 | 7.0 | 0.00 | 0.00 | 0.00 | 82 | 1014.4 |
| 20260510053022 | 74 | 266 | 2.6 | 6.1 | 0.00 | 0.00 | 0.00 | 82 | 1014.7 |
| 20260510051508 | 74 | 261 | 1.7 | 6.1 | 0.00 | 0.00 | 0.00 | 82 | 1014.9 |
| 20260510050011 | 74 | 254 | 1.7 | 6.1 | 0.00 | 0.00 | 0.00 | 82 | 1015.1 |
| 20260510044518 | 73 | 231 | 1.7 | 5.2 | 0.00 | 0.00 | 0.00 | 83 | 1015.2 |
| 20260510043026 | 72 | 250 | 1.7 | 2.6 | 0.00 | 0.00 | 0.00 | 83 | 1015.3 |
| 20260510041524 | 73 | 269 | 0.9 | 1.7 | 0.00 | 0.00 | 0.00 | 82 | 1015.5 |
| 20260510040009 | 73 | 269 | 0.0 | 0.9 | 0.00 | 0.00 | 0.00 | 82 | 1015.5 |
| 20260510034521 | 73 | 270 | 0.0 | 0.9 | 0.00 | 0.00 | 0.00 | 81 | 1015.7 |
| 20260510033019 | 73 | 269 | 0.0 | 1.7 | 0.00 | 0.00 | 0.00 | 82 | 1015.6 |
| 20260510031524 | 73 | 269 | 0.0 | 1.7 | 0.00 | 0.00 | 0.00 | 82 | 1015.6 |
| 20260510030027 | 72 | 269 | 0.0 | 1.7 | 0.00 | 0.00 | 0.00 | 84 | 1015.4 |
| 20260510024513 | 72 | 274 | 0.0 | 0.0 | 0.00 | 0.00 | 0.00 | 84 | 1015.4 |
| 20260510023020 | 72 | 275 | 0.0 | 0.9 | 0.00 | 0.00 | 0.00 | 83 | 1015.3 |
| 20260510021521 | 72 | 270 | 0.9 | 1.7 | 0.00 | 0.00 | 0.00 | 83 | 1014.8 |
| 20260510020025 | 72 | 267 | 0.0 | 3.5 | 0.00 | 0.00 | 0.00 | 84 | 1014.7 |
| 20260510014526 | 71 | 274 | 0.0 | 0.9 | 0.00 | 0.00 | 0.00 | 85 | 1014.5 |
| 20260510013016 | 72 | 274 | 0.0 | 0.9 | 0.00 | 0.00 | 0.00 | 83 | 1014.6 |
| 20260510011520 | 73 | 285 | 0.0 | 0.9 | 0.00 | 0.00 | 0.00 | 82 | 1014.5 |
| 20260510010023 | 73 | 288 | 0.9 | 0.9 | 0.00 | 0.00 | 0.00 | 81 | 1014.5 |
| 20260510004528 | 73 | 267 | 0.9 | 2.6 | 0.00 | 0.00 | 0.00 | 81 | 1014.1 |
| 20260510003024 | 73 | 245 | 1.7 | 4.3 | 0.00 | 0.00 | 0.00 | 81 | 1013.9 |
| 20260510001524 | 73 | 271 | 0.9 | 3.5 | 0.00 | 0.00 | 0.00 | 80 | 1013.9 |
| 20260510000023 | 74 | 242 | 1.7 | 5.2 | 0.00 | 0.00 | 0.00 | 79 | 1014.0 |
| 20260509234506 | 74 | 256 | 2.6 | 5.2 | 0.00 | 0.00 | 0.00 | 78 | 1013.9 |
| 20260509233011 | 75 | 105 | 1.7 | 7.8 | 0.00 | 0.00 | 0.00 | 77 | 1013.7 |
| 20260509231517 | 75 | 259 | 0.9 | 4.3 | 0.00 | 0.00 | 0.00 | 77 | 1013.8 |
| 20260509230021 | 76 | 290 | 1.7 | 6.1 | 0.00 | 0.00 | 0.00 | 75 | 1013.7 |
| 20260509224523 | 77 | 262 | 5.2 | 9.6 | 0.00 | 0.00 | 0.00 | 74 | 1013.8 |
| 20260509223007 | 80 | 276 | 2.6 | 9.6 | 0.00 | 0.00 | 0.00 | 72 | 1013.8 |
| 20260509221511 | 82 | 265 | 1.7 | 5.2 | 0.00 | 0.00 | 0.00 | 69 | 1013.7 |
| 20260509220025 | 82 | 295 | 1.7 | 7.0 | 0.00 | 0.00 | 0.00 | 67 | 1013.6 |
| 20260509214522 | 83 | 288 | 1.7 | 4.3 | 0.00 | 0.00 | 0.00 | 63 | 1013.4 |
| 20260509213008 | 85 | 323 | 1.7 | 5.2 | 0.00 | 0.00 | 0.00 | 59 | 1013.3 |
| 20260509211511 | 85 | 289 | 1.7 | 7.8 | 0.00 | 0.00 | 0.00 | 58 | 1012.9 |
| 20260509210015 | 88 | 273 | 0.9 | 5.2 | 0.00 | 0.00 | 0.00 | 55 | 1012.6 |
| 20260509204523 | 87 | 337 | 2.6 | 7.0 | 0.00 | 0.00 | 0.00 | 58 | 1012.7 |
| 20260509203036 | 88 | 316 | 1.7 | 6.1 | 0.00 | 0.00 | 0.00 | 59 | 1012.8 |
| 20260509201508 | 87 | 168 | 1.7 | 5.2 | 0.00 | 0.00 | 0.00 | 60 | 1012.9 |
| 20260509200015 | 86 | 299 | 2.6 | 7.0 | 0.00 | 0.00 | 0.00 | 62 | 1012.9 |
| 20260509194519 | 84 | 283 | 0.9 | 5.2 | 0.00 | 0.00 | 0.00 | 65 | 1013.0 |
| 20260509193023 | 83 | 304 | 1.7 | 7.0 | 0.00 | 0.00 | 0.00 | 66 | 1013.0 |
| 20260509191524 | 84 | 298 | 1.7 | 5.2 | 0.00 | 0.00 | 0.00 | 67 | 1013.1 |
| 20260509190018 | 84 | 340 | 2.6 | 8.7 | 0.00 | 0.00 | 0.00 | 67 | 1013.4 |
| 20260509184517 | 84 | 312 | 2.6 | 6.1 | 0.00 | 0.00 | 0.00 | 68 | 1013.5 |
| 20260509183024 | 84 | 317 | 3.5 | 7.0 | 0.00 | 0.00 | 0.00 | 65 | 1013.5 |
| 20260509181527 | 85 | 343 | 2.6 | 9.6 | 0.00 | 0.00 | 0.00 | 61 | 1013.7 |
| 20260509180028 | 86 | 285 | 0.9 | 7.0 | 0.00 | 0.00 | 0.00 | 61 | 1014.0 |
| 20260509174514 | 87 | 305 | 3.5 | 8.7 | 0.00 | 0.00 | 0.00 | 59 | 1014.2 |
| 20260509173022 | 87 | 350 | 6.1 | 11.3 | 0.00 | 0.00 | 0.00 | 57 | 1014.1 |
| 20260509171525 | 87 | 354 | 3.5 | 8.7 | 0.00 | 0.00 | 0.00 | 60 | 1014.1 |